sensor_id;sensor_type;location;lat;lon;timestamp;pressure;altitude;pressure_sealevel;temperature;humidity
53300;BME280;39187;48.476;8.310;2022-10-16T00:01:14;91253.84;;;12.54;100.00
53300;BME280;39187;48.476;8.310;2022-10-16T00:03:41;91248.72;;;12.59;100.00
53300;BME280;39187;48.476;8.310;2022-10-16T00:06:07;91255.13;;;12.62;100.00
53300;BME280;39187;48.476;8.310;2022-10-16T00:08:33;91246.13;;;12.56;100.00
53300;BME280;39187;48.476;8.310;2022-10-16T00:11:08;91242.88;;;12.35;100.00
53300;BME280;39187;48.476;8.310;2022-10-16T00:13:36;91241.63;;;12.40;100.00
53300;BME280;39187;48.476;8.310;2022-10-16T00:16:03;91246.25;;;12.52;100.00
53300;BME280;39187;48.476;8.310;2022-10-16T00:18:29;91247.75;;;12.53;100.00
53300;BME280;39187;48.476;8.310;2022-10-16T00:20:56;91249.16;;;12.70;100.00
53300;BME280;39187;48.476;8.310;2022-10-16T00:23:26;91252.75;;;12.51;100.00
53300;BME280;39187;48.476;8.310;2022-10-16T00:26:00;91254.91;;;12.69;100.00
53300;BME280;39187;48.476;8.310;2022-10-16T00:28:27;91250.44;;;12.66;100.00
53300;BME280;39187;48.476;8.310;2022-10-16T00:30:53;91257.19;;;12.70;100.00
53300;BME280;39187;48.476;8.310;2022-10-16T00:33:20;91249.28;;;12.67;100.00
53300;BME280;39187;48.476;8.310;2022-10-16T00:35:45;91254.56;;;12.41;100.00
53300;BME280;39187;48.476;8.310;2022-10-16T00:38:11;91255.22;;;12.58;100.00
53300;BME280;39187;48.476;8.310;2022-10-16T00:40:37;91264.78;;;12.43;100.00
53300;BME280;39187;48.476;8.310;2022-10-16T00:43:12;91255.72;;;12.40;100.00
53300;BME280;39187;48.476;8.310;2022-10-16T00:45:37;91258.41;;;12.40;100.00
53300;BME280;39187;48.476;8.310;2022-10-16T00:48:03;91257.75;;;12.49;100.00
53300;BME280;39187;48.476;8.310;2022-10-16T00:50:30;91256.41;;;12.16;100.00
53300;BME280;39187;48.476;8.310;2022-10-16T00:52:57;91263.84;;;12.50;100.00
53300;BME280;39187;48.476;8.310;2022-10-16T00:55:24;91259.16;;;12.41;100.00
53300;BME280;39187;48.476;8.310;2022-10-16T00:57:51;91254.13;;;12.43;100.00
53300;BME280;39187;48.476;8.310;2022-10-16T01:00:20;91259.72;;;12.61;100.00
53300;BME280;39187;48.476;8.310;2022-10-16T01:02:55;91256.97;;;12.65;100.00
53300;BME280;39187;48.476;8.310;2022-10-16T01:05:23;91264.78;;;12.72;100.00
53300;BME280;39187;48.476;8.310;2022-10-16T01:10:30;91269.66;;;12.61;100.00
53300;BME280;39187;48.476;8.310;2022-10-16T01:13:14;91269.34;;;12.71;100.00
53300;BME280;39187;48.476;8.310;2022-10-16T01:16:00;91271.91;;;12.75;100.00
53300;BME280;39187;48.476;8.310;2022-10-16T01:18:39;91270.75;;;12.76;100.00
53300;BME280;39187;48.476;8.310;2022-10-16T01:21:17;91284.88;;;12.89;100.00
53300;BME280;39187;48.476;8.310;2022-10-16T01:29:26;91275.91;;;12.96;100.00
53300;BME280;39187;48.476;8.310;2022-10-16T01:31:59;91273.53;;;12.72;100.00
53300;BME280;39187;48.476;8.310;2022-10-16T01:34:32;91272.13;;;12.80;100.00
53300;BME280;39187;48.476;8.310;2022-10-16T01:37:09;91274.59;;;12.75;100.00
53300;BME280;39187;48.476;8.310;2022-10-16T01:39:37;91273.56;;;12.85;100.00
53300;BME280;39187;48.476;8.310;2022-10-16T01:42:08;91278.13;;;12.72;100.00
53300;BME280;39187;48.476;8.310;2022-10-16T01:44:36;91279.00;;;12.94;100.00
53300;BME280;39187;48.476;8.310;2022-10-16T01:47:04;91275.69;;;12.90;100.00
53300;BME280;39187;48.476;8.310;2022-10-16T01:49:33;91275.50;;;12.97;100.00
53300;BME280;39187;48.476;8.310;2022-10-16T01:52:03;91281.38;;;12.92;100.00
53300;BME280;39187;48.476;8.310;2022-10-16T01:54:32;91278.91;;;12.98;100.00
53300;BME280;39187;48.476;8.310;2022-10-16T01:56:59;91274.63;;;13.00;100.00
53300;BME280;39187;48.476;8.310;2022-10-16T01:59:30;91273.56;;;12.98;100.00
53300;BME280;39187;48.476;8.310;2022-10-16T02:01:59;91276.13;;;13.01;100.00
53300;BME280;39187;48.476;8.310;2022-10-16T02:04:36;91268.31;;;13.07;100.00
53300;BME280;39187;48.476;8.310;2022-10-16T02:07:03;91268.53;;;13.00;100.00
53300;BME280;39187;48.476;8.310;2022-10-16T02:09:30;91270.16;;;12.97;100.00
53300;BME280;39187;48.476;8.310;2022-10-16T02:12:01;91265.13;;;12.99;100.00
53300;BME280;39187;48.476;8.310;2022-10-16T02:14:29;91270.56;;;12.96;100.00
53300;BME280;39187;48.476;8.310;2022-10-16T02:16:54;91278.69;;;12.92;100.00
53300;BME280;39187;48.476;8.310;2022-10-16T02:19:21;91269.16;;;12.78;100.00
53300;BME280;39187;48.476;8.310;2022-10-16T02:21:54;91267.47;;;12.84;100.00
53300;BME280;39187;48.476;8.310;2022-10-16T02:27:00;91276.53;;;12.87;100.00
53300;BME280;39187;48.476;8.310;2022-10-16T02:29:28;91273.91;;;12.58;100.00
53300;BME280;39187;48.476;8.310;2022-10-16T02:31:58;91275.44;;;12.72;100.00
53300;BME280;39187;48.476;8.310;2022-10-16T02:34:27;91271.50;;;12.76;100.00
53300;BME280;39187;48.476;8.310;2022-10-16T02:36:55;91266.50;;;12.91;100.00
53300;BME280;39187;48.476;8.310;2022-10-16T02:39:22;91271.53;;;13.02;100.00
53300;BME280;39187;48.476;8.310;2022-10-16T02:41:48;91271.00;;;12.94;100.00
53300;BME280;39187;48.476;8.310;2022-10-16T02:44:14;91273.66;;;12.94;100.00
53300;BME280;39187;48.476;8.310;2022-10-16T02:46:39;91271.09;;;12.78;100.00
53300;BME280;39187;48.476;8.310;2022-10-16T02:49:05;91281.31;;;12.67;100.00
53300;BME280;39187;48.476;8.310;2022-10-16T02:51:30;91283.53;;;12.68;100.00
53300;BME280;39187;48.476;8.310;2022-10-16T02:53:56;91274.16;;;12.64;100.00
53300;BME280;39187;48.476;8.310;2022-10-16T02:56:21;91282.06;;;12.67;100.00
53300;BME280;39187;48.476;8.310;2022-10-16T02:58:47;91269.69;;;12.73;100.00
53300;BME280;39187;48.476;8.310;2022-10-16T03:01:12;91271.34;;;12.55;100.00
53300;BME280;39187;48.476;8.310;2022-10-16T03:03:39;91280.66;;;12.63;100.00
53300;BME280;39187;48.476;8.310;2022-10-16T03:06:04;91277.44;;;12.55;100.00
53300;BME280;39187;48.476;8.310;2022-10-16T03:08:31;91274.56;;;12.62;100.00
53300;BME280;39187;48.476;8.310;2022-10-16T03:10:56;91279.09;;;12.78;100.00
53300;BME280;39187;48.476;8.310;2022-10-16T03:13:22;91281.78;;;12.91;100.00
53300;BME280;39187;48.476;8.310;2022-10-16T03:15:47;91286.72;;;12.92;100.00
53300;BME280;39187;48.476;8.310;2022-10-16T03:18:13;91283.03;;;12.73;100.00
53300;BME280;39187;48.476;8.310;2022-10-16T03:20:38;91279.25;;;12.58;100.00
53300;BME280;39187;48.476;8.310;2022-10-16T03:23:04;91286.44;;;12.74;100.00
53300;BME280;39187;48.476;8.310;2022-10-16T03:28:12;91282.81;;;12.80;100.00
53300;BME280;39187;48.476;8.310;2022-10-16T03:30:37;91286.34;;;12.77;100.00
53300;BME280;39187;48.476;8.310;2022-10-16T03:33:05;91278.72;;;12.63;100.00
53300;BME280;39187;48.476;8.310;2022-10-16T03:35:31;91278.41;;;12.61;100.00
53300;BME280;39187;48.476;8.310;2022-10-16T03:37:58;91283.84;;;12.58;100.00
53300;BME280;39187;48.476;8.310;2022-10-16T03:40:23;91285.34;;;12.59;100.00
53300;BME280;39187;48.476;8.310;2022-10-16T03:42:49;91281.72;;;12.53;100.00
53300;BME280;39187;48.476;8.310;2022-10-16T03:45:14;91277.88;;;12.54;100.00
53300;BME280;39187;48.476;8.310;2022-10-16T03:47:40;91282.13;;;12.51;100.00
53300;BME280;39187;48.476;8.310;2022-10-16T03:50:06;91285.13;;;12.53;100.00
53300;BME280;39187;48.476;8.310;2022-10-16T03:52:32;91283.75;;;12.61;100.00
53300;BME280;39187;48.476;8.310;2022-10-16T03:54:58;91287.00;;;12.40;100.00
53300;BME280;39187;48.476;8.310;2022-10-16T03:57:24;91293.50;;;12.39;100.00
53300;BME280;39187;48.476;8.310;2022-10-16T03:59:49;91279.81;;;12.37;100.00
53300;BME280;39187;48.476;8.310;2022-10-16T04:02:15;91282.53;;;12.50;100.00
53300;BME280;39187;48.476;8.310;2022-10-16T04:04:41;91286.81;;;12.47;100.00
53300;BME280;39187;48.476;8.310;2022-10-16T04:07:06;91292.34;;;12.40;100.00
53300;BME280;39187;48.476;8.310;2022-10-16T04:09:32;91295.31;;;12.42;100.00
53300;BME280;39187;48.476;8.310;2022-10-16T04:11:57;91297.56;;;12.43;100.00
53300;BME280;39187;48.476;8.310;2022-10-16T04:14:23;91292.94;;;12.31;100.00
53300;BME280;39187;48.476;8.310;2022-10-16T04:16:48;91301.28;;;12.33;100.00
53300;BME280;39187;48.476;8.310;2022-10-16T04:19:14;91303.25;;;12.45;100.00
53300;BME280;39187;48.476;8.310;2022-10-16T04:21:39;91302.31;;;12.52;100.00
53300;BME280;39187;48.476;8.310;2022-10-16T04:24:05;91303.94;;;12.62;100.00
53300;BME280;39187;48.476;8.310;2022-10-16T04:26:31;91303.03;;;12.40;100.00
53300;BME280;39187;48.476;8.310;2022-10-16T04:28:57;91302.59;;;12.41;100.00
53300;BME280;39187;48.476;8.310;2022-10-16T04:31:22;91309.19;;;12.37;100.00
53300;BME280;39187;48.476;8.310;2022-10-16T04:33:48;91311.63;;;12.31;100.00
53300;BME280;39187;48.476;8.310;2022-10-16T04:36:13;91311.50;;;12.51;100.00
53300;BME280;39187;48.476;8.310;2022-10-16T04:38:39;91310.03;;;12.34;100.00
53300;BME280;39187;48.476;8.310;2022-10-16T04:41:08;91299.44;;;12.30;100.00
53300;BME280;39187;48.476;8.310;2022-10-16T04:43:33;91304.78;;;12.30;100.00
53300;BME280;39187;48.476;8.310;2022-10-16T04:45:59;91302.56;;;12.29;100.00
53300;BME280;39187;48.476;8.310;2022-10-16T04:48:25;91299.53;;;12.56;100.00
53300;BME280;39187;48.476;8.310;2022-10-16T04:50:51;91300.66;;;12.42;100.00
53300;BME280;39187;48.476;8.310;2022-10-16T04:53:16;91290.28;;;12.31;100.00
53300;BME280;39187;48.476;8.310;2022-10-16T04:55:42;91288.25;;;12.35;100.00
53300;BME280;39187;48.476;8.310;2022-10-16T04:58:08;91295.25;;;12.45;100.00
53300;BME280;39187;48.476;8.310;2022-10-16T05:00:34;91300.41;;;12.53;100.00
53300;BME280;39187;48.476;8.310;2022-10-16T05:02:59;91304.34;;;12.48;100.00
53300;BME280;39187;48.476;8.310;2022-10-16T05:05:26;91306.56;;;12.50;100.00
53300;BME280;39187;48.476;8.310;2022-10-16T05:07:52;91309.59;;;12.64;100.00
53300;BME280;39187;48.476;8.310;2022-10-16T05:10:18;91310.84;;;12.47;100.00
53300;BME280;39187;48.476;8.310;2022-10-16T05:12:44;91314.63;;;12.62;100.00
53300;BME280;39187;48.476;8.310;2022-10-16T05:15:10;91311.72;;;12.57;100.00
53300;BME280;39187;48.476;8.310;2022-10-16T05:17:36;91316.03;;;12.67;100.00
53300;BME280;39187;48.476;8.310;2022-10-16T05:20:02;91316.25;;;12.72;100.00
53300;BME280;39187;48.476;8.310;2022-10-16T05:22:28;91321.88;;;12.62;100.00
53300;BME280;39187;48.476;8.310;2022-10-16T05:24:54;91327.25;;;12.74;100.00
53300;BME280;39187;48.476;8.310;2022-10-16T05:27:19;91326.19;;;12.72;100.00
53300;BME280;39187;48.476;8.310;2022-10-16T05:29:45;91329.91;;;12.74;100.00
53300;BME280;39187;48.476;8.310;2022-10-16T05:32:12;91336.91;;;12.84;100.00
53300;BME280;39187;48.476;8.310;2022-10-16T05:34:38;91333.03;;;12.73;100.00
53300;BME280;39187;48.476;8.310;2022-10-16T05:37:04;91327.16;;;12.78;100.00
53300;BME280;39187;48.476;8.310;2022-10-16T05:39:29;91334.78;;;12.92;100.00
53300;BME280;39187;48.476;8.310;2022-10-16T05:41:54;91325.84;;;12.99;100.00
53300;BME280;39187;48.476;8.310;2022-10-16T05:44:20;91334.88;;;12.89;100.00
53300;BME280;39187;48.476;8.310;2022-10-16T05:46:46;91337.25;;;12.87;100.00
53300;BME280;39187;48.476;8.310;2022-10-16T05:49:12;91343.75;;;12.85;100.00
53300;BME280;39187;48.476;8.310;2022-10-16T05:51:37;91346.22;;;12.93;100.00
53300;BME280;39187;48.476;8.310;2022-10-16T05:54:03;91349.91;;;13.11;100.00
53300;BME280;39187;48.476;8.310;2022-10-16T05:56:29;91340.88;;;12.93;100.00
53300;BME280;39187;48.476;8.310;2022-10-16T05:58:54;91343.78;;;12.98;100.00
53300;BME280;39187;48.476;8.310;2022-10-16T06:01:20;91342.50;;;13.03;100.00
53300;BME280;39187;48.476;8.310;2022-10-16T06:03:52;91352.06;;;13.16;100.00
53300;BME280;39187;48.476;8.310;2022-10-16T06:06:23;91359.69;;;13.18;100.00
53300;BME280;39187;48.476;8.310;2022-10-16T06:08:51;91360.94;;;13.26;100.00
53300;BME280;39187;48.476;8.310;2022-10-16T06:11:22;91372.72;;;13.29;100.00
53300;BME280;39187;48.476;8.310;2022-10-16T06:13:52;91369.41;;;13.24;100.00
53300;BME280;39187;48.476;8.310;2022-10-16T06:16:18;91360.44;;;13.18;100.00
53300;BME280;39187;48.476;8.310;2022-10-16T06:18:43;91355.25;;;13.11;100.00
53300;BME280;39187;48.476;8.310;2022-10-16T06:21:16;91361.16;;;13.19;100.00
53300;BME280;39187;48.476;8.310;2022-10-16T06:23:42;91358.59;;;13.15;100.00
53300;BME280;39187;48.476;8.310;2022-10-16T06:26:09;91358.94;;;13.17;100.00
53300;BME280;39187;48.476;8.310;2022-10-16T06:28:35;91360.34;;;13.06;100.00
53300;BME280;39187;48.476;8.310;2022-10-16T06:31:03;91362.66;;;13.33;100.00
53300;BME280;39187;48.476;8.310;2022-10-16T06:33:29;91362.59;;;13.36;100.00
53300;BME280;39187;48.476;8.310;2022-10-16T06:36:03;91376.22;;;13.13;100.00
53300;BME280;39187;48.476;8.310;2022-10-16T06:38:29;91380.63;;;13.32;100.00
53300;BME280;39187;48.476;8.310;2022-10-16T06:40:55;91378.38;;;13.18;100.00
53300;BME280;39187;48.476;8.310;2022-10-16T06:43:20;91386.22;;;13.38;100.00
53300;BME280;39187;48.476;8.310;2022-10-16T06:45:56;91396.41;;;13.55;100.00
53300;BME280;39187;48.476;8.310;2022-10-16T06:48:22;91402.59;;;13.52;100.00
53300;BME280;39187;48.476;8.310;2022-10-16T06:51:19;91401.78;;;13.27;100.00
53300;BME280;39187;48.476;8.310;2022-10-16T06:53:47;91403.47;;;13.49;100.00
53300;BME280;39187;48.476;8.310;2022-10-16T06:56:21;91405.25;;;13.52;100.00
53300;BME280;39187;48.476;8.310;2022-10-16T06:58:47;91413.94;;;13.56;100.00
53300;BME280;39187;48.476;8.310;2022-10-16T07:01:14;91413.69;;;13.51;100.00
53300;BME280;39187;48.476;8.310;2022-10-16T07:03:41;91417.66;;;13.46;100.00
53300;BME280;39187;48.476;8.310;2022-10-16T07:06:09;91415.00;;;13.59;100.00
53300;BME280;39187;48.476;8.310;2022-10-16T07:08:37;91416.31;;;13.25;100.00
53300;BME280;39187;48.476;8.310;2022-10-16T07:11:05;91421.50;;;13.45;100.00
53300;BME280;39187;48.476;8.310;2022-10-16T07:13:38;91427.06;;;13.38;100.00
53300;BME280;39187;48.476;8.310;2022-10-16T07:16:25;91435.34;;;13.69;100.00
53300;BME280;39187;48.476;8.310;2022-10-16T07:18:53;91440.25;;;13.71;100.00
53300;BME280;39187;48.476;8.310;2022-10-16T07:21:23;91443.91;;;13.89;100.00
53300;BME280;39187;48.476;8.310;2022-10-16T07:23:56;91450.34;;;13.92;100.00
53300;BME280;39187;48.476;8.310;2022-10-16T07:26:23;91462.44;;;13.96;100.00
53300;BME280;39187;48.476;8.310;2022-10-16T07:28:49;91465.88;;;14.10;100.00
53300;BME280;39187;48.476;8.310;2022-10-16T07:31:16;91468.25;;;14.08;100.00
53300;BME280;39187;48.476;8.310;2022-10-16T07:33:43;91459.97;;;14.02;100.00
53300;BME280;39187;48.476;8.310;2022-10-16T07:36:10;91466.72;;;14.19;100.00
53300;BME280;39187;48.476;8.310;2022-10-16T07:38:35;91468.00;;;14.15;100.00
53300;BME280;39187;48.476;8.310;2022-10-16T07:41:06;91467.91;;;14.18;100.00
53300;BME280;39187;48.476;8.310;2022-10-16T07:43:32;91489.88;;;14.26;100.00
53300;BME280;39187;48.476;8.310;2022-10-16T07:45:58;91481.16;;;14.09;100.00
53300;BME280;39187;48.476;8.310;2022-10-16T07:48:27;91484.94;;;14.24;100.00
53300;BME280;39187;48.476;8.310;2022-10-16T07:50:57;91489.44;;;14.27;100.00
53300;BME280;39187;48.476;8.310;2022-10-16T07:53:23;91491.13;;;14.34;100.00
53300;BME280;39187;48.476;8.310;2022-10-16T07:55:49;91491.38;;;14.27;100.00
53300;BME280;39187;48.476;8.310;2022-10-16T07:58:14;91491.47;;;14.36;100.00
53300;BME280;39187;48.476;8.310;2022-10-16T08:00:39;91488.16;;;14.32;100.00
53300;BME280;39187;48.476;8.310;2022-10-16T08:03:05;91491.41;;;14.39;99.15
53300;BME280;39187;48.476;8.310;2022-10-16T08:05:32;91492.22;;;14.11;98.92
53300;BME280;39187;48.476;8.310;2022-10-16T08:07:58;91494.88;;;14.11;100.00
53300;BME280;39187;48.476;8.310;2022-10-16T08:10:26;91492.22;;;14.11;98.92
53300;BME280;39187;48.476;8.310;2022-10-16T08:12:52;91490.06;;;14.19;99.26
53300;BME280;39187;48.476;8.310;2022-10-16T08:15:19;91502.56;;;13.96;99.47
53300;BME280;39187;48.476;8.310;2022-10-16T08:17:53;91511.81;;;14.21;98.65
53300;BME280;39187;48.476;8.310;2022-10-16T08:20:18;91503.88;;;14.17;98.54
53300;BME280;39187;48.476;8.310;2022-10-16T08:22:44;91501.84;;;14.21;97.72
53300;BME280;39187;48.476;8.310;2022-10-16T08:25:09;91498.66;;;14.26;98.58
53300;BME280;39187;48.476;8.310;2022-10-16T08:27:35;91504.50;;;14.21;98.97
53300;BME280;39187;48.476;8.310;2022-10-16T08:30:01;91502.16;;;14.23;97.90
53300;BME280;39187;48.476;8.310;2022-10-16T08:32:26;91511.72;;;14.24;98.88
53300;BME280;39187;48.476;8.310;2022-10-16T08:34:52;91514.06;;;14.48;98.83
53300;BME280;39187;48.476;8.310;2022-10-16T08:37:17;91506.47;;;15.06;97.67
53300;BME280;39187;48.476;8.310;2022-10-16T08:39:43;91518.53;;;15.36;94.79
53300;BME280;39187;48.476;8.310;2022-10-16T08:42:37;91529.34;;;15.32;94.99
53300;BME280;39187;48.476;8.310;2022-10-16T08:45:21;91527.47;;;15.20;94.37
53300;BME280;39187;48.476;8.310;2022-10-16T08:48:11;91534.72;;;15.67;93.23
53300;BME280;39187;48.476;8.310;2022-10-16T08:50:40;91538.63;;;16.18;91.04
53300;BME280;39187;48.476;8.310;2022-10-16T08:53:09;91539.47;;;16.68;87.90
53300;BME280;39187;48.476;8.310;2022-10-16T08:55:49;91532.66;;;16.85;85.83
53300;BME280;39187;48.476;8.310;2022-10-16T08:58:23;91540.81;;;17.31;85.59
53300;BME280;39187;48.476;8.310;2022-10-16T09:00:56;91528.53;;;17.20;83.63
53300;BME280;39187;48.476;8.310;2022-10-16T09:07:04;91527.53;;;17.45;85.09
53300;BME280;39187;48.476;8.310;2022-10-16T09:12:26;91533.94;;;17.48;81.75
53300;BME280;39187;48.476;8.310;2022-10-16T09:17:42;91540.25;;;17.90;82.04
53300;BME280;39187;48.476;8.310;2022-10-16T09:25:31;91547.13;;;17.82;81.05
53300;BME280;39187;48.476;8.310;2022-10-16T09:27:57;91552.50;;;17.82;81.60
53300;BME280;39187;48.476;8.310;2022-10-16T09:30:27;91559.66;;;18.22;81.50
53300;BME280;39187;48.476;8.310;2022-10-16T09:32:54;91553.53;;;18.03;79.73
53300;BME280;39187;48.476;8.310;2022-10-16T09:35:27;91561.38;;;18.52;79.21
53300;BME280;39187;48.476;8.310;2022-10-16T09:37:57;91563.44;;;18.66;78.25
53300;BME280;39187;48.476;8.310;2022-10-16T09:40:28;91566.31;;;18.44;77.30
53300;BME280;39187;48.476;8.310;2022-10-16T09:46:24;91574.59;;;18.41;75.36
53300;BME280;39187;48.476;8.310;2022-10-16T09:48:51;91572.38;;;18.30;75.72
53300;BME280;39187;48.476;8.310;2022-10-16T09:51:25;91572.09;;;18.10;78.40
53300;BME280;39187;48.476;8.310;2022-10-16T09:53:59;91579.09;;;18.26;78.06
53300;BME280;39187;48.476;8.310;2022-10-16T09:56:31;91576.72;;;17.73;79.23
53300;BME280;39187;48.476;8.310;2022-10-16T09:59:11;91574.03;;;17.73;79.55
53300;BME280;39187;48.476;8.310;2022-10-16T10:01:55;91587.97;;;17.81;74.43
53300;BME280;39187;48.476;8.310;2022-10-16T10:04:25;91587.47;;;18.37;72.48
53300;BME280;39187;48.476;8.310;2022-10-16T10:06:55;91594.09;;;17.90;72.14
53300;BME280;39187;48.476;8.310;2022-10-16T10:09:44;91593.50;;;18.05;71.51
53300;BME280;39187;48.476;8.310;2022-10-16T10:12:29;91588.13;;;18.05;69.07
53300;BME280;39187;48.476;8.310;2022-10-16T10:15:06;91600.66;;;17.62;70.55
53300;BME280;39187;48.476;8.310;2022-10-16T10:17:32;91599.69;;;17.19;73.40
53300;BME280;39187;48.476;8.310;2022-10-16T10:22:51;91600.16;;;17.36;73.67
53300;BME280;39187;48.476;8.310;2022-10-16T10:25:28;91603.66;;;17.06;74.98
53300;BME280;39187;48.476;8.310;2022-10-16T10:33:47;91595.38;;;17.49;73.34
53300;BME280;39187;48.476;8.310;2022-10-16T10:36:29;91596.94;;;17.87;72.56
53300;BME280;39187;48.476;8.310;2022-10-16T10:39:29;91587.44;;;17.28;73.33
53300;BME280;39187;48.476;8.310;2022-10-16T10:50:27;91609.66;;;17.86;70.39
53300;BME280;39187;48.476;8.310;2022-10-16T10:55:47;91601.28;;;17.84;69.59
53300;BME280;39187;48.476;8.310;2022-10-16T11:01:18;91601.00;;;17.91;71.38
53300;BME280;39187;48.476;8.310;2022-10-16T11:04:33;91595.59;;;17.82;69.34
53300;BME280;39187;48.476;8.310;2022-10-16T11:07:13;91595.72;;;18.06;71.15
53300;BME280;39187;48.476;8.310;2022-10-16T11:09:47;91582.41;;;17.93;70.58
53300;BME280;39187;48.476;8.310;2022-10-16T11:12:20;91588.06;;;17.50;70.45
53300;BME280;39187;48.476;8.310;2022-10-16T11:14:58;91588.34;;;17.34;70.92
53300;BME280;39187;48.476;8.310;2022-10-16T11:17:42;91597.03;;;17.56;70.96
53300;BME280;39187;48.476;8.310;2022-10-16T11:23:08;91593.94;;;17.76;69.74
53300;BME280;39187;48.476;8.310;2022-10-16T11:25:39;91595.53;;;17.46;71.73
53300;BME280;39187;48.476;8.310;2022-10-16T11:28:20;91593.19;;;17.75;72.69
53300;BME280;39187;48.476;8.310;2022-10-16T11:30:52;91597.56;;;17.73;72.92
53300;BME280;39187;48.476;8.310;2022-10-16T11:33:34;91599.13;;;17.52;73.23
53300;BME280;39187;48.476;8.310;2022-10-16T11:36:09;91589.47;;;17.82;73.45
53300;BME280;39187;48.476;8.310;2022-10-16T11:43:56;91591.84;;;17.61;73.81
53300;BME280;39187;48.476;8.310;2022-10-16T11:46:27;91588.06;;;17.50;72.12
53300;BME280;39187;48.476;8.310;2022-10-16T11:49:12;91595.72;;;17.60;72.19
53300;BME280;39187;48.476;8.310;2022-10-16T11:51:43;91595.91;;;17.66;72.50
53300;BME280;39187;48.476;8.310;2022-10-16T11:54:22;91594.63;;;17.31;73.98
53300;BME280;39187;48.476;8.310;2022-10-16T11:56:53;91596.72;;;17.36;74.48
53300;BME280;39187;48.476;8.310;2022-10-16T11:59:48;91587.16;;;17.44;74.66
53300;BME280;39187;48.476;8.310;2022-10-16T12:05:20;91588.88;;;17.78;74.09
53300;BME280;39187;48.476;8.310;2022-10-16T12:10:27;91585.19;;;17.26;77.05
53300;BME280;39187;48.476;8.310;2022-10-16T12:12:53;91587.31;;;17.49;76.17
53300;BME280;39187;48.476;8.310;2022-10-16T12:15:27;91575.38;;;17.59;76.18
53300;BME280;39187;48.476;8.310;2022-10-16T12:17:53;91573.75;;;17.62;76.47
53300;BME280;39187;48.476;8.310;2022-10-16T12:20:28;91581.25;;;17.85;74.46
53300;BME280;39187;48.476;8.310;2022-10-16T12:23:06;91571.94;;;17.68;75.38
53300;BME280;39187;48.476;8.310;2022-10-16T12:25:39;91575.81;;;17.58;73.87
53300;BME280;39187;48.476;8.310;2022-10-16T12:30:41;91580.19;;;18.10;72.85
53300;BME280;39187;48.476;8.310;2022-10-16T12:33:22;91583.59;;;18.29;71.66
53300;BME280;39187;48.476;8.310;2022-10-16T12:35:48;91579.09;;;18.26;72.06
53300;BME280;39187;48.476;8.310;2022-10-16T12:38:21;91584.78;;;18.28;73.58
53300;BME280;39187;48.476;8.310;2022-10-16T12:41:04;91581.66;;;17.93;72.78
53300;BME280;39187;48.476;8.310;2022-10-16T12:43:42;91589.75;;;18.02;73.94
53300;BME280;39187;48.476;8.310;2022-10-16T12:48:33;91587.03;;;18.20;73.23
53300;BME280;39187;48.476;8.310;2022-10-16T12:51:22;91588.41;;;18.07;73.41
53300;BME280;39187;48.476;8.310;2022-10-16T12:54:14;91587.69;;;17.79;72.76
53300;BME280;39187;48.476;8.310;2022-10-16T12:57:03;91587.38;;;17.86;71.94
53300;BME280;39187;48.476;8.310;2022-10-16T13:00:02;91586.78;;;17.91;72.14
53300;BME280;39187;48.476;8.310;2022-10-16T13:02:49;91585.28;;;17.72;72.21
53300;BME280;39187;48.476;8.310;2022-10-16T13:08:00;91577.47;;;17.46;74.81
53300;BME280;39187;48.476;8.310;2022-10-16T13:10:41;91576.50;;;17.22;74.51
53300;BME280;39187;48.476;8.310;2022-10-16T13:13:34;91582.00;;;17.09;75.91
53300;BME280;39187;48.476;8.310;2022-10-16T13:16:14;91589.22;;;17.31;75.95
53300;BME280;39187;48.476;8.310;2022-10-16T13:18:51;91587.56;;;17.24;76.33
53300;BME280;39187;48.476;8.310;2022-10-16T13:29:14;91590.22;;;17.64;76.93
53300;BME280;39187;48.476;8.310;2022-10-16T13:31:40;91581.53;;;17.96;76.04
53300;BME280;39187;48.476;8.310;2022-10-16T13:34:12;91580.63;;;17.90;76.74
53300;BME280;39187;48.476;8.310;2022-10-16T13:36:50;91584.69;;;17.77;76.32
53300;BME280;39187;48.476;8.310;2022-10-16T13:39:23;91577.75;;;17.57;75.12
53300;BME280;39187;48.476;8.310;2022-10-16T13:42:05;91581.03;;;17.43;77.78
53300;BME280;39187;48.476;8.310;2022-10-16T13:44:39;91589.25;;;17.49;78.34
53300;BME280;39187;48.476;8.310;2022-10-16T13:47:18;91586.41;;;17.43;78.54
53300;BME280;39187;48.476;8.310;2022-10-16T13:49:45;91588.41;;;17.70;78.54
53300;BME280;39187;48.476;8.310;2022-10-16T13:52:20;91584.81;;;17.82;78.61
53300;BME280;39187;48.476;8.310;2022-10-16T13:54:47;91587.06;;;17.75;78.70
53300;BME280;39187;48.476;8.310;2022-10-16T13:57:14;91590.97;;;17.83;78.16
53300;BME280;39187;48.476;8.310;2022-10-16T13:59:40;91596.75;;;17.45;76.68
53300;BME280;39187;48.476;8.310;2022-10-16T14:02:33;91595.66;;;17.42;76.74
53300;BME280;39187;48.476;8.310;2022-10-16T14:05:01;91595.75;;;17.70;77.47
53300;BME280;39187;48.476;8.310;2022-10-16T14:07:31;91595.16;;;17.84;77.97
53300;BME280;39187;48.476;8.310;2022-10-16T14:10:22;91597.78;;;17.47;77.84
53300;BME280;39187;48.476;8.310;2022-10-16T14:13:31;91595.97;;;17.44;77.08
53300;BME280;39187;48.476;8.310;2022-10-16T14:16:02;91593.59;;;17.46;77.38
53300;BME280;39187;48.476;8.310;2022-10-16T14:18:28;91597.66;;;17.60;77.84
53300;BME280;39187;48.476;8.310;2022-10-16T14:20:54;91600.78;;;17.49;78.49
53300;BME280;39187;48.476;8.310;2022-10-16T14:23:29;91593.69;;;17.24;78.49
53300;BME280;39187;48.476;8.310;2022-10-16T14:28:40;91594.63;;;17.31;78.54
53300;BME280;39187;48.476;8.310;2022-10-16T14:31:28;91597.63;;;17.51;77.32
53300;BME280;39187;48.476;8.310;2022-10-16T14:33:54;91598.97;;;17.37;78.16
53300;BME280;39187;48.476;8.310;2022-10-16T14:36:20;91599.44;;;17.45;78.64
53300;BME280;39187;48.476;8.310;2022-10-16T14:39:16;91599.84;;;17.25;79.05